עמוד ראשי
METAR-TAF:

שדות תעופה :

שטוטגרט, גרמניה

קו רוחב: 48-41N, קו אורך: 009-13E, גובה: 396מטר

תצפית מזג אוויר נוכחית

הדו"ח נערך לפני 33דקות, בשעה 04:50 UTC
רוח 4קשר מכיוון מערב/דרום-מערב, משתנה בין דרום/דרום-מערב ו מערב
טמפרטורת 17 צלסיוס
לחות 88%
לחץ 1015 hPa
ראות 10 קילומטר או יותר
מעט עננים בגובה 3600רגל
עננים בינוניים בגובה 6800רגל

METAR: EDDS 290450Z 24004KT 200V270 9999 FEW036 BKN068 17/15 Q1015 NOSIG

זמן: 07:23 (05:23 UTC)

תחזית

הדו"ח נערך לפני 6 שעות ו 23דקות, בשעה 23:00 UTC
תחזית בתוקף מ 29 ב 00 UTC עד 29 ב 24 UTC
רוח 4קשר מכיוון דרום/דרום-מערב
ראות 10 קילומטר או יותר
ללא עננים שבסיסם נמוך מ 5000 רגל או קומולונימבוס
יעשה מ
29 ב 06 UTC עד 29 ב 09 UTC
רוח 7קשר מכיוון מערב
יעשה מ
29 ב 15 UTC עד 29 ב 19 UTC
רוח 3קשר עם כיוונים משתנים

TAF: EDDS 282300Z 2900/2924 20004KT CAVOK BECMG 2906/2909 26007KT BECMG 2915/2919 VRB03KT

METAR-TAF

תצפיות ותחזיות מזג אוויר לגבי יותר מ- 4,000 שדות תעופה ברחבי העולם. דוחות METAR ו- TAF.

התחנות הזמינות מסומנות בנקודות צהובות ואדומות על גבי המפה.

העבר את העכבר לנקודה הצבעונית על מנת לראות את שם התחנה.

לאחר מכן, לחץ כדי לראות את תוכן ואת תחזיות מזג האוויר.

כדי לשנות את המפה: לחץ על הכפתורים הירוקים עם הפלוס השחור כדי להתקרב; על הכפתור הירוק עם המקף כדי להתרחק; או בחיצים הירוקים למפות סמוכות.


METAR-TAF: